sensor_id;sensor_type;location;lat;lon;timestamp;pressure;altitude;pressure_sealevel;temperature;humidity
51452;BME280;37521;52.020;-1.740;2024-02-04T00:00:22;100877.28;;;7.96;100.00
51452;BME280;37521;52.020;-1.740;2024-02-04T00:02:51;100881.63;;;7.97;100.00
51452;BME280;37521;52.020;-1.740;2024-02-04T00:05:20;100862.31;;;7.98;100.00
51452;BME280;37521;52.020;-1.740;2024-02-04T00:07:49;100868.41;;;8.00;100.00
51452;BME280;37521;52.020;-1.740;2024-02-04T00:10:18;100868.47;;;7.97;100.00
51452;BME280;37521;52.020;-1.740;2024-02-04T00:12:49;100872.06;;;7.93;100.00
51452;BME280;37521;52.020;-1.740;2024-02-04T00:15:18;100880.91;;;7.89;100.00
51452;BME280;37521;52.020;-1.740;2024-02-04T00:17:46;100869.56;;;7.87;100.00
51452;BME280;37521;52.020;-1.740;2024-02-04T00:20:15;100872.19;;;7.87;100.00
51452;BME280;37521;52.020;-1.740;2024-02-04T00:22:44;100869.66;;;7.84;100.00
51452;BME280;37521;52.020;-1.740;2024-02-04T00:25:13;100859.16;;;7.82;100.00
51452;BME280;37521;52.020;-1.740;2024-02-04T00:27:42;100858.34;;;7.79;100.00
51452;BME280;37521;52.020;-1.740;2024-02-04T00:30:12;100863.63;;;7.79;100.00
51452;BME280;37521;52.020;-1.740;2024-02-04T00:32:41;100857.50;;;7.78;100.00
51452;BME280;37521;52.020;-1.740;2024-02-04T00:35:10;100849.69;;;7.74;100.00
51452;BME280;37521;52.020;-1.740;2024-02-04T00:37:39;100855.94;;;7.70;100.00
51452;BME280;37521;52.020;-1.740;2024-02-04T00:40:09;100869.94;;;7.70;100.00
51452;BME280;37521;52.020;-1.740;2024-02-04T00:42:38;100863.75;;;7.73;100.00
51452;BME280;37521;52.020;-1.740;2024-02-04T00:45:07;100858.47;;;7.73;100.00
51452;BME280;37521;52.020;-1.740;2024-02-04T00:47:37;100857.56;;;7.74;100.00
51452;BME280;37521;52.020;-1.740;2024-02-04T00:50:07;100855.81;;;7.76;100.00
51452;BME280;37521;52.020;-1.740;2024-02-04T00:52:38;100847.97;;;7.73;100.00
51452;BME280;37521;52.020;-1.740;2024-02-04T00:55:07;100846.28;;;7.69;100.00
51452;BME280;37521;52.020;-1.740;2024-02-04T00:57:36;100849.81;;;7.68;100.00
51452;BME280;37521;52.020;-1.740;2024-02-04T01:00:06;100845.41;;;7.70;100.00
51452;BME280;37521;52.020;-1.740;2024-02-04T01:02:38;100847.97;;;7.73;100.00
51452;BME280;37521;52.020;-1.740;2024-02-04T01:05:07;100837.44;;;7.73;100.00
51452;BME280;37521;52.020;-1.740;2024-02-04T01:07:36;100836.59;;;7.72;100.00
51452;BME280;37521;52.020;-1.740;2024-02-04T01:10:06;100836.59;;;7.72;100.00
51452;BME280;37521;52.020;-1.740;2024-02-04T01:12:36;100835.66;;;7.75;100.00
51452;BME280;37521;52.020;-1.740;2024-02-04T01:15:06;100829.53;;;7.74;100.00
51452;BME280;37521;52.020;-1.740;2024-02-04T01:17:34;100833.91;;;7.74;100.00
51452;BME280;37521;52.020;-1.740;2024-02-04T01:20:05;100845.28;;;7.74;100.00
51452;BME280;37521;52.020;-1.740;2024-02-04T01:22:34;100840.94;;;7.73;100.00
51452;BME280;37521;52.020;-1.740;2024-02-04T01:25:03;100842.66;;;7.76;100.00
51452;BME280;37521;52.020;-1.740;2024-02-04T01:27:32;100830.34;;;7.78;100.00
51452;BME280;37521;52.020;-1.740;2024-02-04T01:30:01;100825.00;;;7.81;100.00
51452;BME280;37521;52.020;-1.740;2024-02-04T01:32:30;100824.91;;;7.85;100.00
51452;BME280;37521;52.020;-1.740;2024-02-04T01:34:59;100818.69;;;7.88;100.00
51452;BME280;37521;52.020;-1.740;2024-02-04T01:37:29;100816.06;;;7.88;100.00
51452;BME280;37521;52.020;-1.740;2024-02-04T01:39:58;100812.53;;;7.89;100.00
51452;BME280;37521;52.020;-1.740;2024-02-04T01:42:27;100812.53;;;7.89;100.00
51452;BME280;37521;52.020;-1.740;2024-02-04T01:44:56;100814.28;;;7.90;100.00
51452;BME280;37521;52.020;-1.740;2024-02-04T01:47:24;100805.50;;;7.91;100.00
51452;BME280;37521;52.020;-1.740;2024-02-04T01:49:53;100803.78;;;7.90;100.00
51452;BME280;37521;52.020;-1.740;2024-02-04T01:52:23;100803.78;;;7.90;100.00
51452;BME280;37521;52.020;-1.740;2024-02-04T01:54:53;100799.41;;;7.89;100.00
51452;BME280;37521;52.020;-1.740;2024-02-04T01:57:23;100800.28;;;7.88;100.00
51452;BME280;37521;52.020;-1.740;2024-02-04T01:59:52;100804.72;;;7.86;100.00
51452;BME280;37521;52.020;-1.740;2024-02-04T02:02:24;100809.13;;;7.85;100.00
51452;BME280;37521;52.020;-1.740;2024-02-04T02:04:53;100803.00;;;7.85;100.00
51452;BME280;37521;52.020;-1.740;2024-02-04T02:07:23;100808.31;;;7.83;100.00
51452;BME280;37521;52.020;-1.740;2024-02-04T02:09:56;100798.72;;;7.81;100.00
51452;BME280;37521;52.020;-1.740;2024-02-04T02:12:27;100795.34;;;7.76;100.00
51452;BME280;37521;52.020;-1.740;2024-02-04T02:15:01;100787.53;;;7.71;100.00
51452;BME280;37521;52.020;-1.740;2024-02-04T02:17:35;100786.72;;;7.68;100.00
51452;BME280;37521;52.020;-1.740;2024-02-04T02:20:12;100788.59;;;7.64;100.00
51452;BME280;37521;52.020;-1.740;2024-02-04T02:22:48;100788.63;;;7.62;100.00
51452;BME280;37521;52.020;-1.740;2024-02-04T02:25:20;100787.84;;;7.57;100.00
51452;BME280;37521;52.020;-1.740;2024-02-04T02:27:50;100802.75;;;7.55;100.00
51452;BME280;37521;52.020;-1.740;2024-02-04T02:30:19;100798.41;;;7.54;100.00
51452;BME280;37521;52.020;-1.740;2024-02-04T02:32:49;100794.00;;;7.56;100.00
51452;BME280;37521;52.020;-1.740;2024-02-04T02:35:18;100792.16;;;7.60;100.00
51452;BME280;37521;52.020;-1.740;2024-02-04T02:37:55;100792.91;;;7.67;100.00
51452;BME280;37521;52.020;-1.740;2024-02-04T02:40:29;100791.84;;;7.74;100.00
51452;BME280;37521;52.020;-1.740;2024-02-04T02:43:02;100793.59;;;7.75;100.00
51452;BME280;37521;52.020;-1.740;2024-02-04T02:45:31;100785.69;;;7.76;100.00
51452;BME280;37521;52.020;-1.740;2024-02-04T02:48:00;100783.84;;;7.80;100.00
51452;BME280;37521;52.020;-1.740;2024-02-04T02:50:29;100779.47;;;7.79;100.00
51452;BME280;37521;52.020;-1.740;2024-02-04T02:52:58;100785.69;;;7.75;100.00
51452;BME280;37521;52.020;-1.740;2024-02-04T02:55:28;100767.44;;;7.69;100.00
51452;BME280;37521;52.020;-1.740;2024-02-04T02:57:57;100764.84;;;7.67;100.00
51452;BME280;37521;52.020;-1.740;2024-02-04T03:00:26;100776.31;;;7.64;100.00
51452;BME280;37521;52.020;-1.740;2024-02-04T03:02:55;100764.06;;;7.63;100.00
51452;BME280;37521;52.020;-1.740;2024-02-04T03:05:24;100761.44;;;7.62;100.00
51452;BME280;37521;52.020;-1.740;2024-02-04T03:07:53;100753.56;;;7.63;100.00
51452;BME280;37521;52.020;-1.740;2024-02-04T03:10:21;100752.59;;;7.66;100.00
51452;BME280;37521;52.020;-1.740;2024-02-04T03:12:51;100755.19;;;7.68;100.00
51452;BME280;37521;52.020;-1.740;2024-02-04T03:15:20;100766.56;;;7.68;100.00
51452;BME280;37521;52.020;-1.740;2024-02-04T03:17:49;100757.00;;;7.65;100.00
51452;BME280;37521;52.020;-1.740;2024-02-04T03:20:18;100754.47;;;7.62;100.00
51452;BME280;37521;52.020;-1.740;2024-02-04T03:22:48;100750.06;;;7.63;100.00
51452;BME280;37521;52.020;-1.740;2024-02-04T03:25:20;100756.03;;;7.70;100.00
51452;BME280;37521;52.020;-1.740;2024-02-04T03:27:52;100748.91;;;7.75;100.00
51452;BME280;37521;52.020;-1.740;2024-02-04T03:30:21;100742.75;;;7.76;100.00
51452;BME280;37521;52.020;-1.740;2024-02-04T03:32:50;100738.38;;;7.76;100.00
51452;BME280;37521;52.020;-1.740;2024-02-04T03:35:19;100736.59;;;7.77;100.00
51452;BME280;37521;52.020;-1.740;2024-02-04T03:37:48;100733.06;;;7.78;100.00
51452;BME280;37521;52.020;-1.740;2024-02-04T03:40:17;100718.13;;;7.80;100.00
51452;BME280;37521;52.020;-1.740;2024-02-04T03:42:46;100711.94;;;7.81;100.00
51452;BME280;37521;52.020;-1.740;2024-02-04T03:45:17;100709.28;;;7.84;100.00
51452;BME280;37521;52.020;-1.740;2024-02-04T03:47:46;100712.66;;;7.87;100.00
51452;BME280;37521;52.020;-1.740;2024-02-04T03:50:15;100724.91;;;7.90;100.00
51452;BME280;37521;52.020;-1.740;2024-02-04T03:52:43;100716.16;;;7.88;100.00
51452;BME280;37521;52.020;-1.740;2024-02-04T03:55:12;100707.53;;;7.83;100.00
51452;BME280;37521;52.020;-1.740;2024-02-04T03:57:41;100700.63;;;7.79;100.00
51452;BME280;37521;52.020;-1.740;2024-02-04T04:00:11;100707.69;;;7.77;100.00
51452;BME280;37521;52.020;-1.740;2024-02-04T04:02:42;100698.81;;;7.81;100.00
51452;BME280;37521;52.020;-1.740;2024-02-04T04:05:11;100698.75;;;7.84;100.00
51452;BME280;37521;52.020;-1.740;2024-02-04T04:07:40;100691.59;;;7.89;100.00
51452;BME280;37521;52.020;-1.740;2024-02-04T04:10:09;100695.13;;;7.88;100.00
51452;BME280;37521;52.020;-1.740;2024-02-04T04:12:38;100693.41;;;7.87;100.00
51452;BME280;37521;52.020;-1.740;2024-02-04T04:15:07;100689.09;;;7.84;100.00
51452;BME280;37521;52.020;-1.740;2024-02-04T04:17:36;100676.00;;;7.81;100.00
51452;BME280;37521;52.020;-1.740;2024-02-04T04:20:07;100681.34;;;7.78;100.00
51452;BME280;37521;52.020;-1.740;2024-02-04T04:22:38;100692.81;;;7.76;100.00
51452;BME280;37521;52.020;-1.740;2024-02-04T04:25:09;100687.56;;;7.76;100.00
51452;BME280;37521;52.020;-1.740;2024-02-04T04:27:38;100686.66;;;7.77;100.00
51452;BME280;37521;52.020;-1.740;2024-02-04T04:30:07;100696.13;;;7.84;100.00
51452;BME280;37521;52.020;-1.740;2024-02-04T04:32:36;100676.66;;;7.91;100.00
51452;BME280;37521;52.020;-1.740;2024-02-04T04:35:07;100697.56;;;7.97;100.00
51452;BME280;37521;52.020;-1.740;2024-02-04T04:37:36;100690.38;;;8.04;100.00
51452;BME280;37521;52.020;-1.740;2024-02-04T04:40:05;100692.06;;;8.06;100.00
51452;BME280;37521;52.020;-1.740;2024-02-04T04:42:34;100692.00;;;8.08;100.00
51452;BME280;37521;52.020;-1.740;2024-02-04T04:45:04;100681.44;;;8.11;100.00
51452;BME280;37521;52.020;-1.740;2024-02-04T04:47:34;100675.22;;;8.13;100.00
51452;BME280;37521;52.020;-1.740;2024-02-04T04:50:05;100672.53;;;8.15;100.00
51452;BME280;37521;52.020;-1.740;2024-02-04T04:52:35;100682.19;;;8.14;100.00
51452;BME280;37521;52.020;-1.740;2024-02-04T04:55:04;100679.56;;;8.16;100.00
51452;BME280;37521;52.020;-1.740;2024-02-04T04:57:33;100672.53;;;8.16;100.00
51452;BME280;37521;52.020;-1.740;2024-02-04T05:00:03;100676.94;;;8.14;100.00
51452;BME280;37521;52.020;-1.740;2024-02-04T05:02:34;100674.31;;;8.14;100.00
51452;BME280;37521;52.020;-1.740;2024-02-04T05:05:02;100682.19;;;8.16;100.00
51452;BME280;37521;52.020;-1.740;2024-02-04T05:07:31;100678.59;;;8.18;100.00
51452;BME280;37521;52.020;-1.740;2024-02-04T05:10:02;100668.06;;;8.18;100.00
51452;BME280;37521;52.020;-1.740;2024-02-04T05:12:32;100690.84;;;8.19;100.00
51452;BME280;37521;52.020;-1.740;2024-02-04T05:15:01;100686.50;;;8.18;100.00
51452;BME280;37521;52.020;-1.740;2024-02-04T05:17:30;100682.09;;;8.19;100.00
51452;BME280;37521;52.020;-1.740;2024-02-04T05:20:01;100683.84;;;8.18;100.00
51452;BME280;37521;52.020;-1.740;2024-02-04T05:22:31;100688.31;;;8.16;100.00
51452;BME280;37521;52.020;-1.740;2024-02-04T05:24:59;100674.31;;;8.14;100.00
51452;BME280;37521;52.020;-1.740;2024-02-04T05:27:30;100687.53;;;8.11;100.00
51452;BME280;37521;52.020;-1.740;2024-02-04T05:29:59;100679.72;;;8.08;100.00
51452;BME280;37521;52.020;-1.740;2024-02-04T05:32:28;100677.25;;;8.02;100.00
51452;BME280;37521;52.020;-1.740;2024-02-04T05:34:56;100683.56;;;7.95;100.00
51452;BME280;37521;52.020;-1.740;2024-02-04T05:37:25;100677.63;;;7.87;100.00
51452;BME280;37521;52.020;-1.740;2024-02-04T05:39:54;100686.56;;;7.80;100.00
51452;BME280;37521;52.020;-1.740;2024-02-04T05:42:23;100678.91;;;7.71;100.00
51452;BME280;37521;52.020;-1.740;2024-02-04T05:44:53;100683.41;;;7.65;100.00
51452;BME280;37521;52.020;-1.740;2024-02-04T05:47:22;100683.50;;;7.62;100.00
51452;BME280;37521;52.020;-1.740;2024-02-04T05:49:50;100685.13;;;7.67;100.00
51452;BME280;37521;52.020;-1.740;2024-02-04T05:52:19;100678.06;;;7.69;100.00
51452;BME280;37521;52.020;-1.740;2024-02-04T05:54:48;100681.53;;;7.71;100.00
51452;BME280;37521;52.020;-1.740;2024-02-04T05:57:17;100686.66;;;7.77;100.00
51452;BME280;37521;52.020;-1.740;2024-02-04T05:59:47;100683.03;;;7.81;100.00
51452;BME280;37521;52.020;-1.740;2024-02-04T06:02:17;100673.22;;;7.87;100.00
51452;BME280;37521;52.020;-1.740;2024-02-04T06:04:46;100667.06;;;7.90;100.00
51452;BME280;37521;52.020;-1.740;2024-02-04T06:07:15;100672.22;;;7.93;100.00
51452;BME280;37521;52.020;-1.740;2024-02-04T06:09:44;100669.53;;;7.95;100.00
51452;BME280;37521;52.020;-1.740;2024-02-04T06:12:13;100670.41;;;7.95;100.00
51452;BME280;37521;52.020;-1.740;2024-02-04T06:14:42;100664.28;;;7.96;100.00
51452;BME280;37521;52.020;-1.740;2024-02-04T06:17:11;100665.16;;;7.95;100.00
51452;BME280;37521;52.020;-1.740;2024-02-04T06:19:41;100659.97;;;7.92;100.00
51452;BME280;37521;52.020;-1.740;2024-02-04T06:22:10;100660.03;;;7.89;100.00
51452;BME280;37521;52.020;-1.740;2024-02-04T06:24:38;100668.06;;;7.84;100.00
51452;BME280;37521;52.020;-1.740;2024-02-04T06:27:08;100672.47;;;7.84;100.00
51452;BME280;37521;52.020;-1.740;2024-02-04T06:29:37;100670.75;;;7.83;100.00
51452;BME280;37521;52.020;-1.740;2024-02-04T06:32:06;100665.50;;;7.81;100.00
51452;BME280;37521;52.020;-1.740;2024-02-04T06:34:35;100656.69;;;7.84;100.00
51452;BME280;37521;52.020;-1.740;2024-02-04T06:37:06;100654.97;;;7.83;100.00
51452;BME280;37521;52.020;-1.740;2024-02-04T06:39:35;100650.56;;;7.83;100.00
51452;BME280;37521;52.020;-1.740;2024-02-04T06:42:04;100649.72;;;7.83;100.00
51452;BME280;37521;52.020;-1.740;2024-02-04T06:44:33;100646.06;;;7.87;100.00
51452;BME280;37521;52.020;-1.740;2024-02-04T06:47:02;100638.03;;;7.93;100.00
51452;BME280;37521;52.020;-1.740;2024-02-04T06:49:31;100654.69;;;7.93;100.00
51452;BME280;37521;52.020;-1.740;2024-02-04T06:52:00;100636.38;;;7.90;100.00
51452;BME280;37521;52.020;-1.740;2024-02-04T06:54:30;100641.72;;;7.86;100.00
51452;BME280;37521;52.020;-1.740;2024-02-04T06:56:59;100633.94;;;7.83;100.00
51452;BME280;37521;52.020;-1.740;2024-02-04T06:59:27;100637.53;;;7.79;100.00
51452;BME280;37521;52.020;-1.740;2024-02-04T07:01:56;100639.34;;;7.75;100.00
51452;BME280;37521;52.020;-1.740;2024-02-04T07:04:25;100642.94;;;7.73;100.00
51452;BME280;37521;52.020;-1.740;2024-02-04T07:06:54;100643.06;;;7.67;100.00
51452;BME280;37521;52.020;-1.740;2024-02-04T07:09:22;100640.44;;;7.67;100.00
51452;BME280;37521;52.020;-1.740;2024-02-04T07:11:53;100630.84;;;7.65;100.00
51452;BME280;37521;52.020;-1.740;2024-02-04T07:14:21;100637.03;;;7.63;100.00
51452;BME280;37521;52.020;-1.740;2024-02-04T07:16:50;100624.78;;;7.62;100.00
51452;BME280;37521;52.020;-1.740;2024-02-04T07:19:19;100637.09;;;7.60;100.00
51452;BME280;37521;52.020;-1.740;2024-02-04T07:21:48;100627.41;;;7.63;100.00
51452;BME280;37521;52.020;-1.740;2024-02-04T07:24:16;100622.19;;;7.60;100.00
51452;BME280;37521;52.020;-1.740;2024-02-04T07:26:45;100623.06;;;7.61;100.00
51452;BME280;37521;52.020;-1.740;2024-02-04T07:29:16;100621.38;;;7.58;100.00
51452;BME280;37521;52.020;-1.740;2024-02-04T07:31:44;100627.44;;;7.60;100.00
51452;BME280;37521;52.020;-1.740;2024-02-04T07:34:13;100629.16;;;7.63;100.00
51452;BME280;37521;52.020;-1.740;2024-02-04T07:36:42;100629.06;;;7.66;100.00
51452;BME280;37521;52.020;-1.740;2024-02-04T07:39:12;100640.41;;;7.70;100.00
51452;BME280;37521;52.020;-1.740;2024-02-04T07:41:41;100629.03;;;7.68;100.00
51452;BME280;37521;52.020;-1.740;2024-02-04T07:44:11;100618.50;;;7.68;100.00
51452;BME280;37521;52.020;-1.740;2024-02-04T07:46:41;100629.94;;;7.67;100.00
51452;BME280;37521;52.020;-1.740;2024-02-04T07:49:10;100624.72;;;7.65;100.00
51452;BME280;37521;52.020;-1.740;2024-02-04T07:51:39;100622.16;;;7.63;100.00
51452;BME280;37521;52.020;-1.740;2024-02-04T07:54:08;100626.50;;;7.64;100.00
51452;BME280;37521;52.020;-1.740;2024-02-04T07:56:36;100633.47;;;7.65;100.00
51452;BME280;37521;52.020;-1.740;2024-02-04T07:59:05;100640.41;;;7.68;100.00
51452;BME280;37521;52.020;-1.740;2024-02-04T08:01:34;100635.16;;;7.68;100.00
51452;BME280;37521;52.020;-1.740;2024-02-04T08:04:04;100641.25;;;7.69;100.00
51452;BME280;37521;52.020;-1.740;2024-02-04T08:06:36;100659.59;;;7.72;100.00
51452;BME280;37521;52.020;-1.740;2024-02-04T08:09:05;100651.63;;;7.75;100.00
51452;BME280;37521;52.020;-1.740;2024-02-04T08:11:34;100649.84;;;7.77;100.00
51452;BME280;37521;52.020;-1.740;2024-02-04T08:14:02;100638.47;;;7.76;100.00
51452;BME280;37521;52.020;-1.740;2024-02-04T08:16:31;100639.34;;;7.77;100.00
51452;BME280;37521;52.020;-1.740;2024-02-04T08:19:00;100648.94;;;7.78;100.00
51452;BME280;37521;52.020;-1.740;2024-02-04T08:21:30;100651.47;;;7.81;100.00
51452;BME280;37521;52.020;-1.740;2024-02-04T08:23:59;100649.72;;;7.81;100.00
51452;BME280;37521;52.020;-1.740;2024-02-04T08:26:28;100657.53;;;7.84;100.00
51452;BME280;37521;52.020;-1.740;2024-02-04T08:28:57;100657.53;;;7.84;100.00
51452;BME280;37521;52.020;-1.740;2024-02-04T08:31:30;100642.53;;;7.88;100.00
51452;BME280;37521;52.020;-1.740;2024-02-04T08:33:59;100642.38;;;7.94;100.00
51452;BME280;37521;52.020;-1.740;2024-02-04T08:36:30;100633.53;;;7.98;100.00
51452;BME280;37521;52.020;-1.740;2024-02-04T08:38:59;100634.34;;;8.00;100.00
51452;BME280;37521;52.020;-1.740;2024-02-04T08:41:28;100634.31;;;8.02;100.00
51452;BME280;37521;52.020;-1.740;2024-02-04T08:43:57;100640.38;;;8.05;100.00
51452;BME280;37521;52.020;-1.740;2024-02-04T08:46:30;100643.75;;;8.10;100.00
51452;BME280;37521;52.020;-1.740;2024-02-04T08:48:58;100644.50;;;8.14;100.00
51452;BME280;37521;52.020;-1.740;2024-02-04T08:51:27;100654.97;;;8.15;100.00
51452;BME280;37521;52.020;-1.740;2024-02-04T08:53:59;100644.44;;;8.17;100.00
51452;BME280;37521;52.020;-1.740;2024-02-04T08:56:28;100647.03;;;8.18;100.00
51452;BME280;37521;52.020;-1.740;2024-02-04T08:58:57;100646.91;;;8.23;100.00
51452;BME280;37521;52.020;-1.740;2024-02-04T09:01:26;100652.03;;;8.28;100.00
51452;BME280;37521;52.020;-1.740;2024-02-04T09:03:55;100651.97;;;8.31;100.00
51452;BME280;37521;52.020;-1.740;2024-02-04T09:06:24;100655.41;;;8.33;100.00
51452;BME280;37521;52.020;-1.740;2024-02-04T09:08:53;100657.97;;;8.36;100.00
51452;BME280;37521;52.020;-1.740;2024-02-04T09:11:23;100658.72;;;8.41;100.00
51452;BME280;37521;52.020;-1.740;2024-02-04T09:13:52;100648.13;;;8.44;100.00
51452;BME280;37521;52.020;-1.740;2024-02-04T09:16:21;100637.47;;;8.49;100.00
51452;BME280;37521;52.020;-1.740;2024-02-04T09:18:50;100648.72;;;8.54;100.00
51452;BME280;37521;52.020;-1.740;2024-02-04T09:21:19;100642.56;;;8.55;100.00
51452;BME280;37521;52.020;-1.740;2024-02-04T09:23:49;100645.97;;;8.58;100.00
51452;BME280;37521;52.020;-1.740;2024-02-04T09:26:18;100647.59;;;8.62;100.00
51452;BME280;37521;52.020;-1.740;2024-02-04T09:28:48;100657.16;;;8.66;100.00
51452;BME280;37521;52.020;-1.740;2024-02-04T09:31:17;100648.34;;;8.67;100.00
51452;BME280;37521;52.020;-1.740;2024-02-04T09:33:46;100650.06;;;8.70;100.00
51452;BME280;37521;52.020;-1.740;2024-02-04T09:36:15;100647.38;;;8.71;100.00
51452;BME280;37521;52.020;-1.740;2024-02-04T09:38:44;100656.94;;;8.74;100.00
51452;BME280;37521;52.020;-1.740;2024-02-04T09:41:13;100654.13;;;8.80;100.00
51452;BME280;37521;52.020;-1.740;2024-02-04T09:43:42;100653.84;;;8.89;100.00
51452;BME280;37521;52.020;-1.740;2024-02-04T09:46:14;100660.66;;;8.98;100.00
51452;BME280;37521;52.020;-1.740;2024-02-04T09:48:45;100650.78;;;9.05;100.00
51452;BME280;37521;52.020;-1.740;2024-02-04T09:51:14;100652.47;;;9.07;100.00
51452;BME280;37521;52.020;-1.740;2024-02-04T09:53:44;100661.28;;;9.06;100.00
51452;BME280;37521;52.020;-1.740;2024-02-04T09:56:14;100663.91;;;9.06;100.00
51452;BME280;37521;52.020;-1.740;2024-02-04T09:58:45;100668.19;;;9.10;100.00
51452;BME280;37521;52.020;-1.740;2024-02-04T10:01:16;100664.59;;;9.13;100.00
51452;BME280;37521;52.020;-1.740;2024-02-04T10:03:47;100655.78;;;9.14;100.00
51452;BME280;37521;52.020;-1.740;2024-02-04T10:06:16;100650.59;;;9.11;100.00
51452;BME280;37521;52.020;-1.740;2024-02-04T10:08:45;100651.59;;;9.07;100.00
51452;BME280;37521;52.020;-1.740;2024-02-04T10:11:15;100647.28;;;9.04;100.00
51452;BME280;37521;52.020;-1.740;2024-02-04T10:13:44;100647.38;;;9.01;100.00
51452;BME280;37521;52.020;-1.740;2024-02-04T10:16:15;100650.09;;;8.98;100.00
51452;BME280;37521;52.020;-1.740;2024-02-04T10:18:45;100651.03;;;8.95;100.00
51452;BME280;37521;52.020;-1.740;2024-02-04T10:21:16;100664.22;;;8.95;100.00
51452;BME280;37521;52.020;-1.740;2024-02-04T10:23:45;100674.75;;;8.95;100.00
51452;BME280;37521;52.020;-1.740;2024-02-04T10:26:14;100673.88;;;8.95;100.00
51452;BME280;37521;52.020;-1.740;2024-02-04T10:28:44;100673.81;;;8.98;100.00
51452;BME280;37521;52.020;-1.740;2024-02-04T10:31:16;100669.19;;;9.06;100.00
51452;BME280;37521;52.020;-1.740;2024-02-04T10:33:45;100672.44;;;9.14;100.00
51452;BME280;37521;52.020;-1.740;2024-02-04T10:36:14;100674.66;;;9.28;100.00
51452;BME280;37521;52.020;-1.740;2024-02-04T10:38:43;100675.81;;;9.47;100.00
51452;BME280;37521;52.020;-1.740;2024-02-04T10:41:14;100665.75;;;9.60;100.00
51452;BME280;37521;52.020;-1.740;2024-02-04T10:43:44;100681.38;;;9.66;100.00
51452;BME280;37521;52.020;-1.740;2024-02-04T10:46:13;100668.06;;;9.71;100.00
51452;BME280;37521;52.020;-1.740;2024-02-04T10:48:52;100670.84;;;9.66;100.00
51452;BME280;37521;52.020;-1.740;2024-02-04T10:51:24;100672.63;;;9.66;100.00
51452;BME280;37521;52.020;-1.740;2024-02-04T10:53:54;100675.38;;;9.61;100.00
51452;BME280;37521;52.020;-1.740;2024-02-04T10:56:30;100679.84;;;9.59;100.00
51452;BME280;37521;52.020;-1.740;2024-02-04T10:58:59;100660.63;;;9.55;100.00
51452;BME280;37521;52.020;-1.740;2024-02-04T11:01:30;100673.06;;;9.52;100.00
51452;BME280;37521;52.020;-1.740;2024-02-04T11:04:02;100660.81;;;9.49;100.00
51452;BME280;37521;52.020;-1.740;2024-02-04T11:06:34;100665.34;;;9.46;100.00
51452;BME280;37521;52.020;-1.740;2024-02-04T11:09:04;100667.97;;;9.46;100.00
51452;BME280;37521;52.020;-1.740;2024-02-04T11:11:35;100664.41;;;9.47;100.00
51452;BME280;37521;52.020;-1.740;2024-02-04T11:14:06;100662.56;;;9.50;100.00
51452;BME280;37521;52.020;-1.740;2024-02-04T11:17:05;100671.22;;;9.54;100.00
51452;BME280;37521;52.020;-1.740;2024-02-04T11:19:50;100676.50;;;9.54;100.00
51452;BME280;37521;52.020;-1.740;2024-02-04T11:22:56;100662.41;;;9.55;100.00
51452;BME280;37521;52.020;-1.740;2024-02-04T11:25:47;100667.66;;;9.57;100.00
51452;BME280;37521;52.020;-1.740;2024-02-04T11:28:19;100658.75;;;9.59;100.00
51452;BME280;37521;52.020;-1.740;2024-02-04T11:30:50;100655.16;;;9.62;100.00
51452;BME280;37521;52.020;-1.740;2024-02-04T11:33:20;100663.00;;;9.65;100.00
51452;BME280;37521;52.020;-1.740;2024-02-04T11:36:00;100658.56;;;9.65;100.00
51452;BME280;37521;52.020;-1.740;2024-02-04T11:38:33;100653.31;;;9.65;100.00
51452;BME280;37521;52.020;-1.740;2024-02-04T11:41:05;100651.59;;;9.63;100.00
51452;BME280;37521;52.020;-1.740;2024-02-04T11:43:34;100653.38;;;9.62;100.00
51452;BME280;37521;52.020;-1.740;2024-02-04T11:46:04;100655.13;;;9.63;100.00
51452;BME280;37521;52.020;-1.740;2024-02-04T11:48:34;100652.53;;;9.62;100.00
51452;BME280;37521;52.020;-1.740;2024-02-04T11:51:09;100651.72;;;9.60;100.00
51452;BME280;37521;52.020;-1.740;2024-02-04T11:53:38;100639.41;;;9.60;100.00
51452;BME280;37521;52.020;-1.740;2024-02-04T11:56:07;100635.84;;;9.61;100.00
51452;BME280;37521;52.020;-1.740;2024-02-04T11:58:36;100632.41;;;9.59;100.00
51452;BME280;37521;52.020;-1.740;2024-02-04T12:01:09;100628.97;;;9.57;100.00
51452;BME280;37521;52.020;-1.740;2024-02-04T12:03:39;100630.75;;;9.57;100.00
51452;BME280;37521;52.020;-1.740;2024-02-04T12:06:10;100630.69;;;9.58;100.00
51452;BME280;37521;52.020;-1.740;2024-02-04T12:08:42;100628.97;;;9.57;100.00
51452;BME280;37521;52.020;-1.740;2024-02-04T12:11:11;100622.66;;;9.61;100.00
51452;BME280;37521;52.020;-1.740;2024-02-04T12:13:40;100616.38;;;9.65;100.00
51452;BME280;37521;52.020;-1.740;2024-02-04T12:16:10;100614.47;;;9.70;100.00
51452;BME280;37521;52.020;-1.740;2024-02-04T12:18:48;100617.00;;;9.73;100.00
51452;BME280;37521;52.020;-1.740;2024-02-04T12:21:18;100609.78;;;9.78;100.00
51452;BME280;37521;52.020;-1.740;2024-02-04T12:23:48;100598.31;;;9.79;100.00
51452;BME280;37521;52.020;-1.740;2024-02-04T12:26:17;100598.22;;;9.82;100.00
51452;BME280;37521;52.020;-1.740;2024-02-04T12:28:46;100598.22;;;9.82;100.00
51452;BME280;37521;52.020;-1.740;2024-02-04T12:31:18;100592.94;;;9.82;100.00
51452;BME280;37521;52.020;-1.740;2024-02-04T12:33:55;100580.66;;;9.81;100.00
51452;BME280;37521;52.020;-1.740;2024-02-04T12:36:28;100574.53;;;9.81;100.00
51452;BME280;37521;52.020;-1.740;2024-02-04T12:38:58;100578.84;;;9.83;100.00
51452;BME280;37521;52.020;-1.740;2024-02-04T12:41:28;100570.88;;;9.85;100.00
51452;BME280;37521;52.020;-1.740;2024-02-04T12:43:59;100575.09;;;9.91;100.00
51452;BME280;37521;52.020;-1.740;2024-02-04T12:46:28;100575.91;;;9.93;100.00
51452;BME280;37521;52.020;-1.740;2024-02-04T12:48:57;100567.91;;;9.94;100.00
51452;BME280;37521;52.020;-1.740;2024-02-04T12:51:33;100571.31;;;9.98;100.00
51452;BME280;37521;52.020;-1.740;2024-02-04T12:54:06;100566.78;;;10.01;100.00